Time;durP1;ratioP1;P1;durP2;ratioP2;P2;SDS_P1;SDS_P2;PMS_P1;PMS_P2;Temp;Humidity;BMP_temperature;BMP_pressure;BME280_temperature;BME280_humidity;BME280_pressure;Samples;Min_cycle;Max_cycle;Signal;HPM_P1;HPM_P2
2024/01/27 00:00:06;;;;;;;;;;;;;;;;;;344609;28;1392;-81
2024/01/27 00:00:16;;;;;;;;;;;;;;;;;;343003;28;1168;-81
2024/01/27 00:00:27;;;;;;;;;;;;;;;;;;341484;29;1406;-81
2024/01/27 00:00:37;;;;;;;;;;;;;;;;;;343116;28;955;-81
2024/01/27 00:00:47;;;;;;;;;;;;;;;;;;342891;28;955;-81
2024/01/27 00:00:57;;;;;;;;;;;;;;;;;;343095;28;1347;-81
2024/01/27 00:01:07;;;;;;;;;;;;;;;;;;344221;28;1042;-81
2024/01/27 00:01:17;;;;;;;;;;;;;;;;;;344509;28;1034;-81
2024/01/27 00:01:28;;;;;;;;;;;;;;;;;;341355;29;1248;-81
2024/01/27 00:01:38;;;;;;;;;;;;;;;;;;344300;28;1607;-81
2024/01/27 00:01:48;;;;;;;;;;;;;;;;;;344242;28;1049;-81
2024/01/27 00:01:59;;;;;;;;;;;;;;;;;;344310;28;1475;-81
2024/01/27 00:02:09;;;;;;;;;;;;;;;;;;342986;28;955;-81
2024/01/27 00:02:19;;;;;;;;;;;;;;;;;;342278;28;1190;-81
2024/01/27 00:02:29;;;;;;;;;;;;;;;;;;343100;28;860;-81
2024/01/27 00:02:39;;;;;;;;;;;;;;;;;;342985;28;907;-81
2024/01/27 00:02:49;;;;;;;;;;;;;;;;;;341750;29;1396;-81
2024/01/27 00:03:00;;;;;;;;;;;;;;;;;;342713;28;1191;-81
2024/01/27 00:03:10;;;;;;;;;;;;;;;;;;342945;28;1106;-81
2024/01/27 00:03:21;;;;;;;;;;;;;;;;;;344035;28;1340;-81
2024/01/27 00:03:31;;;;;;;;;;;;;;;;;;343040;28;995;-81
2024/01/27 00:03:41;;;;;;;;;;;;;;;;;;341589;29;859;-81
2024/01/27 00:03:53;;;;;;;;;;;;;;;;;;341804;29;1038;-81
2024/01/27 00:04:04;;;;;;;;;;;;;;;;;;341720;29;812;-81
2024/01/27 00:04:14;;;;;;;;;;;;;;;;;;341750;29;1185;-81
2024/01/27 00:04:24;;;;;;;;;;;;;;;;;;338881;29;991;-81
2024/01/27 00:04:37;;;;;;;;;;;;;;;;;;339107;29;979;-81
2024/01/27 00:04:48;;;;;;;;;;;;;;;;;;339568;29;1086;-81
2024/01/27 00:04:58;;;;;;;;;;;;;;;;;;342839;28;1218;-81
2024/01/27 00:05:08;;;;;;;;;;;;;;;;;;343098;28;955;-81
2024/01/27 00:05:19;;;;;;;;;;;;;;;;;;342907;28;987;-81
2024/01/27 00:05:29;;;;;;;;;;;;;;;;;;345731;28;1242;-81
2024/01/27 00:05:39;;;;;;;;;;;;;;;;;;345591;28;832;-81
2024/01/27 00:05:49;;;;;;;;;;;;;;;;;;345843;28;812;-81
2024/01/27 00:05:59;;;;;;;;;;;;;;;;;;345734;28;896;-81
2024/01/27 00:06:10;;;;;;;;;;;;;;;;;;345719;28;979;-81
2024/01/27 00:06:20;;;;;;;;;;;;;;;;;;343015;28;1413;-81
2024/01/27 00:06:30;;;;;;;;;;;;;;;;;;342738;28;1305;-81
2024/01/27 00:06:40;;;;;;;;;;;;;;;;;;343104;28;820;-81
2024/01/27 00:06:50;;;;;;;;;;;;;;;;;;342822;28;1489;-81
2024/01/27 00:07:01;;;;;;;;;;;;;;;;;;343310;28;1018;-81
2024/01/27 00:07:11;;;;;;;;;;;;;;;;;;344101;28;867;-81
2024/01/27 00:07:21;;;;;;;;;;;;;;;;;;344317;28;816;-81
2024/01/27 00:07:32;;;;;;;;;;;;;;;;;;342844;28;994;-81
2024/01/27 00:07:42;;;;;;;;;;;;;;;;;;343023;28;1185;-81
2024/01/27 00:07:52;;;;;;;;;;;;;;;;;;342800;28;970;-81
2024/01/27 00:08:02;;;;;;;;;;;;;;;;;;342297;28;1086;-81
2024/01/27 00:08:13;;;;;;;;;;;;;;;;;;341490;29;1109;-81
2024/01/27 00:08:23;;;;;;;;;;;;;;;;;;341691;29;1396;-81
2024/01/27 00:08:33;;;;;;;;;;;;;;;;;;344091;28;1231;-81
2024/01/27 00:08:43;;;;;;;;;;;;;;;;;;344472;28;978;-81
2024/01/27 00:08:53;;;;;;;;;;;;;;;;;;342877;28;987;-81
2024/01/27 00:09:05;;;;;;;;;;;;;;;;;;343446;28;1352;-81
2024/01/27 00:09:16;;;;;;;;;;;;;;;;;;341373;29;1314;-81
2024/01/27 00:09:26;;;;;;;;;;;;;;;;;;341398;29;853;-81
2024/01/27 00:09:36;;;;;;;;;;;;;;;;;;341861;28;1126;-81
2024/01/27 00:09:46;;;;;;;;;;;;;;;;;;343052;28;1034;-81
2024/01/27 00:09:59;;;;;;;;;;;;;;;;;;340293;29;738;-81
2024/01/27 00:10:09;;;;;;;;;;;;;;;;;;340484;29;932;-81
2024/01/27 00:10:19;;;;;;;;;;;;;;;;;;342833;28;1205;-81
2024/01/27 00:10:29;;;;;;;;;;;;;;;;;;344307;28;1061;-81
2024/01/27 00:10:40;;;;;;;;;;;;;;;;;;345485;28;1208;-81
2024/01/27 00:10:50;;;;;;;;;;;;;;;;;;345822;28;947;-81
2024/01/27 00:11:00;;;;;;;;;;;;;;;;;;344177;28;1042;-81
2024/01/27 00:11:11;;;;;;;;;;;;;;;;;;345598;28;1399;-81
2024/01/27 00:11:24;;;;;;;;;;;;;;;;;;344124;28;1030;-81
2024/01/27 00:11:34;;;;;;;;;;;;;;;;;;344483;28;998;-81
2024/01/27 00:11:45;;;;;;;;;;;;;;;;;;344145;28;1562;-81
2024/01/27 00:11:55;;;;;;;;;;;;;;;;;;344403;28;938;-81
2024/01/27 00:12:05;;;;;;;;;;;;;;;;;;344187;28;970;-81
2024/01/27 00:12:16;;;;;;;;;;;;;;;;;;345708;28;1160;-81
2024/01/27 00:12:26;;;;;;;;;;;;;;;;;;345576;28;910;-81
2024/01/27 00:12:36;;;;;;;;;;;;;;;;;;342997;28;1316;-81
2024/01/27 00:12:46;;;;;;;;;;;;;;;;;;340136;28;1416;-81
2024/01/27 00:12:57;;;;;;;;;;;;;;;;;;341545;29;1122;-81
2024/01/27 00:13:07;;;;;;;;;;;;;;;;;;341591;29;1034;-81
2024/01/27 00:13:18;;;;;;;;;;;;;;;;;;342935;28;1408;-81
2024/01/27 00:13:28;;;;;;;;;;;;;;;;;;342924;28;919;-81
2024/01/27 00:13:38;;;;;;;;;;;;;;;;;;343108;28;1045;-81
2024/01/27 00:13:48;;;;;;;;;;;;;;;;;;342884;28;1329;-81
2024/01/27 00:14:02;;;;;;;;;;;;;;;;;;343088;28;1046;-81
2024/01/27 00:14:13;;;;;;;;;;;;;;;;;;343045;28;1002;-81
2024/01/27 00:14:23;;;;;;;;;;;;;;;;;;344425;28;1085;-81
2024/01/27 00:14:34;;;;;;;;;;;;;;;;;;342835;28;1142;-81
2024/01/27 00:14:44;;;;;;;;;;;;;;;;;;343031;28;963;-81
2024/01/27 00:14:54;;;;;;;;;;;;;;;;;;343754;28;1465;-81
2024/01/27 00:15:06;;;;;;;;;;;;;;;;;;344461;28;986;-81
2024/01/27 00:15:16;;;;;;;;;;;;;;;;;;344366;28;998;-81
2024/01/27 00:15:27;;;;;;;;;;;;;;;;;;345520;28;1330;-81
2024/01/27 00:15:37;;;;;;;;;;;;;;;;;;347028;28;1642;-81
2024/01/27 00:15:47;;;;;;;;;;;;;;;;;;345702;28;950;-81
2024/01/27 00:15:57;;;;;;;;;;;;;;;;;;345702;28;718;-81
2024/01/27 00:16:09;;;;;;;;;;;;;;;;;;345693;28;1042;-81
2024/01/27 00:16:19;;;;;;;;;;;;;;;;;;345387;28;1069;-81
2024/01/27 00:16:29;;;;;;;;;;;;;;;;;;345499;28;962;-81
2024/01/27 00:16:39;;;;;;;;;;;;;;;;;;342895;28;924;-81
2024/01/27 00:16:49;;;;;;;;;;;;;;;;;;343050;28;995;-81
2024/01/27 00:17:00;;;;;;;;;;;;;;;;;;342191;28;1960;-81
2024/01/27 00:17:10;;;;;;;;;;;;;;;;;;339145;29;1007;-81
2024/01/27 00:17:25;;;;;;;;;;;;;;;;;;340169;29;999;-81
2024/01/27 00:17:35;;;;;;;;;;;;;;;;;;342693;28;1122;-81
2024/01/27 00:17:45;;;;;;;;;;;;;;;;;;344860;28;1324;-81
2024/01/27 00:17:56;;;;;;;;;;;;;;;;;;345606;28;889;-81
2024/01/27 00:18:06;;;;;;;;;;;;;;;;;;345809;28;871;-81
2024/01/27 00:18:16;;;;;;;;;;;;;;;;;;345642;28;1010;-81
2024/01/27 00:18:27;;;;;;;;;;;;;;;;;;347150;28;1227;-81
2024/01/27 00:18:37;;;;;;;;;;;;;;;;;;344248;28;935;-81
2024/01/27 00:18:47;;;;;;;;;;;;;;;;;;344492;28;863;-81
2024/01/27 00:18:58;;;;;;;;;;;;;;;;;;345453;28;1200;-81
2024/01/27 00:19:08;;;;;;;;;;;;;;;;;;344877;28;1365;-81
2024/01/27 00:19:18;;;;;;;;;;;;;;;;;;344207;28;1012;-81
2024/01/27 00:19:28;;;;;;;;;;;;;;;;;;343146;28;1045;-81
2024/01/27 00:19:38;;;;;;;;;;;;;;;;;;342963;28;837;-81
2024/01/27 00:19:49;;;;;;;;;;;;;;;;;;345582;28;1189;-81
2024/01/27 00:19:59;;;;;;;;;;;;;;;;;;345791;28;1046;-81
2024/01/27 00:20:09;;;;;;;;;;;;;;;;;;345607;28;1033;-81
2024/01/27 00:20:20;;;;;;;;;;;;;;;;;;345822;28;1018;-81
2024/01/27 00:20:30;;;;;;;;;;;;;;;;;;345510;28;868;-81
2024/01/27 00:20:40;;;;;;;;;;;;;;;;;;345757;28;967;-81
2024/01/27 00:20:50;;;;;;;;;;;;;;;;;;345328;28;1018;-81
2024/01/27 00:21:00;;;;;;;;;;;;;;;;;;344757;28;1215;-81
2024/01/27 00:21:11;;;;;;;;;;;;;;;;;;344141;28;1026;-81
2024/01/27 00:21:21;;;;;;;;;;;;;;;;;;344349;28;1287;-81
2024/01/27 00:21:31;;;;;;;;;;;;;;;;;;344205;28;1041;-81
2024/01/27 00:21:41;;;;;;;;;;;;;;;;;;344431;28;1362;-81
2024/01/27 00:21:52;;;;;;;;;;;;;;;;;;344139;28;987;-81
2024/01/27 00:22:02;;;;;;;;;;;;;;;;;;341733;29;1228;-81
2024/01/27 00:22:12;;;;;;;;;;;;;;;;;;342870;28;957;-81
2024/01/27 00:22:22;;;;;;;;;;;;;;;;;;342977;28;974;-81
2024/01/27 00:22:32;;;;;;;;;;;;;;;;;;342804;28;1336;-81
2024/01/27 00:22:43;;;;;;;;;;;;;;;;;;344205;28;1240;-81
2024/01/27 00:22:53;;;;;;;;;;;;;;;;;;342872;28;1157;-81
2024/01/27 00:23:03;;;;;;;;;;;;;;;;;;343037;28;1130;-81
2024/01/27 00:23:14;;;;;;;;;;;;;;;;;;342859;28;785;-81
2024/01/27 00:23:24;;;;;;;;;;;;;;;;;;342536;28;947;-81
2024/01/27 00:23:34;;;;;;;;;;;;;;;;;;340262;29;821;-81
2024/01/27 00:23:44;;;;;;;;;;;;;;;;;;344226;28;1108;-81
2024/01/27 00:24:00;;;;;;;;;;;;;;;;;;342709;28;1173;-81
2024/01/27 00:24:10;;;;;;;;;;;;;;;;;;342904;28;1022;-81
2024/01/27 00:24:20;;;;;;;;;;;;;;;;;;344130;28;1221;-81
2024/01/27 00:24:31;;;;;;;;;;;;;;;;;;344410;28;1002;-81
2024/01/27 00:24:41;;;;;;;;;;;;;;;;;;344181;28;1002;-81
2024/01/27 00:24:52;;;;;;;;;;;;;;;;;;344435;28;947;-81
2024/01/27 00:25:02;;;;;;;;;;;;;;;;;;344205;28;1239;-81
2024/01/27 00:25:12;;;;;;;;;;;;;;;;;;341652;28;1190;-81
2024/01/27 00:25:22;;;;;;;;;;;;;;;;;;341478;29;1062;-81
2024/01/27 00:25:33;;;;;;;;;;;;;;;;;;343076;28;963;-81
2024/01/27 00:25:43;;;;;;;;;;;;;;;;;;342873;28;1058;-81
2024/01/27 00:25:53;;;;;;;;;;;;;;;;;;342869;28;1071;-81
2024/01/27 00:26:04;;;;;;;;;;;;;;;;;;342743;28;1194;-81
2024/01/27 00:26:14;;;;;;;;;;;;;;;;;;344373;28;1474;-81
2024/01/27 00:26:24;;;;;;;;;;;;;;;;;;345587;28;1018;-81
2024/01/27 00:26:34;;;;;;;;;;;;;;;;;;345425;28;1394;-81
2024/01/27 00:26:45;;;;;;;;;;;;;;;;;;342841;28;959;-81
2024/01/27 00:26:55;;;;;;;;;;;;;;;;;;342977;28;1384;-81
2024/01/27 00:27:05;;;;;;;;;;;;;;;;;;344117;28;1517;-81
2024/01/27 00:27:16;;;;;;;;;;;;;;;;;;343015;28;986;-81
2024/01/27 00:27:26;;;;;;;;;;;;;;;;;;342918;28;1313;-81
2024/01/27 00:27:36;;;;;;;;;;;;;;;;;;345800;28;919;-81
2024/01/27 00:27:46;;;;;;;;;;;;;;;;;;344940;28;1322;-81
2024/01/27 00:27:57;;;;;;;;;;;;;;;;;;345786;28;977;-81
2024/01/27 00:28:07;;;;;;;;;;;;;;;;;;345464;28;1006;-81
2024/01/27 00:28:17;;;;;;;;;;;;;;;;;;345785;28;966;-81
2024/01/27 00:28:27;;;;;;;;;;;;;;;;;;345565;28;967;-81
2024/01/27 00:28:37;;;;;;;;;;;;;;;;;;344476;28;927;-81
2024/01/27 00:28:48;;;;;;;;;;;;;;;;;;342877;28;994;-81
2024/01/27 00:28:58;;;;;;;;;;;;;;;;;;343029;28;1006;-81
2024/01/27 00:29:08;;;;;;;;;;;;;;;;;;343686;28;1312;-81
2024/01/27 00:29:18;;;;;;;;;;;;;;;;;;344429;28;974;-81
2024/01/27 00:29:29;;;;;;;;;;;;;;;;;;342808;28;991;-81
2024/01/27 00:29:39;;;;;;;;;;;;;;;;;;342457;28;1612;-81
2024/01/27 00:29:49;;;;;;;;;;;;;;;;;;341449;29;1011;-81
2024/01/27 00:29:59;;;;;;;;;;;;;;;;;;340292;29;1193;-81
2024/01/27 00:30:11;;;;;;;;;;;;;;;;;;341511;29;1307;-81
2024/01/27 00:30:21;;;;;;;;;;;;;;;;;;341578;29;1194;-81
2024/01/27 00:30:31;;;;;;;;;;;;;;;;;;341082;29;923;-81
2024/01/27 00:30:42;;;;;;;;;;;;;;;;;;343769;28;1321;-81
2024/01/27 00:30:52;;;;;;;;;;;;;;;;;;342881;28;990;-81
2024/01/27 00:31:02;;;;;;;;;;;;;;;;;;343170;28;876;-81
2024/01/27 00:31:12;;;;;;;;;;;;;;;;;;342903;28;990;-81
2024/01/27 00:31:22;;;;;;;;;;;;;;;;;;344295;28;1218;-81
2024/01/27 00:31:33;;;;;;;;;;;;;;;;;;344281;28;1007;-81
2024/01/27 00:31:43;;;;;;;;;;;;;;;;;;343013;28;1067;-81
2024/01/27 00:31:54;;;;;;;;;;;;;;;;;;341614;29;1215;-81
2024/01/27 00:32:04;;;;;;;;;;;;;;;;;;341619;28;1166;-81
2024/01/27 00:32:15;;;;;;;;;;;;;;;;;;341631;28;1031;-81
2024/01/27 00:32:25;;;;;;;;;;;;;;;;;;341703;29;1039;-81
2024/01/27 00:32:35;;;;;;;;;;;;;;;;;;341729;29;998;-81
2024/01/27 00:32:45;;;;;;;;;;;;;;;;;;341365;29;1396;-81
2024/01/27 00:32:56;;;;;;;;;;;;;;;;;;341632;29;1403;-81
2024/01/27 00:33:06;;;;;;;;;;;;;;;;;;341503;29;1300;-81
2024/01/27 00:33:16;;;;;;;;;;;;;;;;;;341715;29;1055;-81
2024/01/27 00:33:26;;;;;;;;;;;;;;;;;;341502;29;1169;-81
2024/01/27 00:33:37;;;;;;;;;;;;;;;;;;341779;29;966;-81
2024/01/27 00:33:47;;;;;;;;;;;;;;;;;;341732;28;1477;-81
2024/01/27 00:33:57;;;;;;;;;;;;;;;;;;342990;28;1022;-81
2024/01/27 00:34:07;;;;;;;;;;;;;;;;;;342793;28;1085;-81
2024/01/27 00:34:17;;;;;;;;;;;;;;;;;;340353;29;1018;-81
2024/01/27 00:34:28;;;;;;;;;;;;;;;;;;340198;29;805;-81
2024/01/27 00:34:38;;;;;;;;;;;;;;;;;;343264;28;944;-81
2024/01/27 00:34:48;;;;;;;;;;;;;;;;;;345522;28;963;-81
2024/01/27 00:34:58;;;;;;;;;;;;;;;;;;345738;28;982;-81
2024/01/27 00:35:11;;;;;;;;;;;;;;;;;;345518;28;998;-81
2024/01/27 00:35:21;;;;;;;;;;;;;;;;;;343050;28;1418;-81
2024/01/27 00:35:32;;;;;;;;;;;;;;;;;;341792;28;1000;-81
2024/01/27 00:35:42;;;;;;;;;;;;;;;;;;341688;28;1045;-81
2024/01/27 00:35:52;;;;;;;;;;;;;;;;;;344188;28;1018;-81
2024/01/27 00:36:03;;;;;;;;;;;;;;;;;;344342;28;1185;-81
2024/01/27 00:36:13;;;;;;;;;;;;;;;;;;345428;28;1352;-81
2024/01/27 00:36:23;;;;;;;;;;;;;;;;;;345762;28;897;-81
2024/01/27 00:36:36;;;;;;;;;;;;;;;;;;344081;28;1395;-81
2024/01/27 00:36:48;;;;;;;;;;;;;;;;;;345742;28;1077;-81
2024/01/27 00:36:58;;;;;;;;;;;;;;;;;;345714;28;1887;-81
2024/01/27 00:37:09;;;;;;;;;;;;;;;;;;345302;28;1073;-81
2024/01/27 00:37:19;;;;;;;;;;;;;;;;;;345786;28;761;-81
2024/01/27 00:37:29;;;;;;;;;;;;;;;;;;343722;28;998;-81
2024/01/27 00:37:40;;;;;;;;;;;;;;;;;;344256;28;1019;-81
2024/01/27 00:37:50;;;;;;;;;;;;;;;;;;343310;28;1304;-81
2024/01/27 00:38:01;;;;;;;;;;;;;;;;;;338898;29;1333;-81
2024/01/27 00:38:11;;;;;;;;;;;;;;;;;;341565;29;1404;-81
2024/01/27 00:38:21;;;;;;;;;;;;;;;;;;342772;28;1007;-81
2024/01/27 00:38:31;;;;;;;;;;;;;;;;;;343138;28;884;-81
2024/01/27 00:38:41;;;;;;;;;;;;;;;;;;341495;29;939;-81
2024/01/27 00:38:52;;;;;;;;;;;;;;;;;;341597;29;1253;-81
2024/01/27 00:39:03;;;;;;;;;;;;;;;;;;341544;29;837;-81
2024/01/27 00:39:13;;;;;;;;;;;;;;;;;;341652;29;1550;-81
2024/01/27 00:39:23;;;;;;;;;;;;;;;;;;342706;28;1276;-81
2024/01/27 00:39:34;;;;;;;;;;;;;;;;;;345776;28;942;-81
2024/01/27 00:39:45;;;;;;;;;;;;;;;;;;345494;28;1010;-81
2024/01/27 00:39:55;;;;;;;;;;;;;;;;;;345787;28;894;-81
2024/01/27 00:40:07;;;;;;;;;;;;;;;;;;345613;28;998;-81
2024/01/27 00:40:18;;;;;;;;;;;;;;;;;;345508;28;1158;-81
2024/01/27 00:40:28;;;;;;;;;;;;;;;;;;345180;28;1312;-81
2024/01/27 00:40:38;;;;;;;;;;;;;;;;;;343061;28;951;-81
2024/01/27 00:40:49;;;;;;;;;;;;;;;;;;344308;28;1178;-81
2024/01/27 00:40:59;;;;;;;;;;;;;;;;;;341662;28;1077;-81
2024/01/27 00:41:12;;;;;;;;;;;;;;;;;;341520;29;975;-81
2024/01/27 00:41:22;;;;;;;;;;;;;;;;;;341562;29;1011;-81
2024/01/27 00:41:33;;;;;;;;;;;;;;;;;;340381;29;971;-81
2024/01/27 00:41:43;;;;;;;;;;;;;;;;;;340212;29;995;-81
2024/01/27 00:41:55;;;;;;;;;;;;;;;;;;340285;29;1439;-81
2024/01/27 00:42:05;;;;;;;;;;;;;;;;;;342683;28;1173;-81
2024/01/27 00:42:16;;;;;;;;;;;;;;;;;;343112;28;1011;-81
2024/01/27 00:42:26;;;;;;;;;;;;;;;;;;342855;28;788;-81
2024/01/27 00:42:37;;;;;;;;;;;;;;;;;;344314;28;943;-81
2024/01/27 00:42:47;;;;;;;;;;;;;;;;;;343975;28;1382;-81
2024/01/27 00:42:58;;;;;;;;;;;;;;;;;;344342;28;1378;-81
2024/01/27 00:43:09;;;;;;;;;;;;;;;;;;342799;28;1090;-81
2024/01/27 00:43:19;;;;;;;;;;;;;;;;;;345220;28;1450;-81
2024/01/27 00:43:29;;;;;;;;;;;;;;;;;;345455;28;1176;-81
2024/01/27 00:43:39;;;;;;;;;;;;;;;;;;345505;28;1215;-81
2024/01/27 00:43:49;;;;;;;;;;;;;;;;;;344169;28;1317;-81
2024/01/27 00:44:00;;;;;;;;;;;;;;;;;;344310;28;1316;-81
2024/01/27 00:44:10;;;;;;;;;;;;;;;;;;344156;28;1037;-81
2024/01/27 00:44:20;;;;;;;;;;;;;;;;;;343944;28;1500;-81
2024/01/27 00:44:31;;;;;;;;;;;;;;;;;;340883;29;797;-81
2024/01/27 00:44:41;;;;;;;;;;;;;;;;;;341659;28;979;-81
2024/01/27 00:44:51;;;;;;;;;;;;;;;;;;342836;28;1050;-81
2024/01/27 00:45:01;;;;;;;;;;;;;;;;;;343104;28;919;-81
2024/01/27 00:45:11;;;;;;;;;;;;;;;;;;346820;28;1285;-81
2024/01/27 00:45:27;;;;;;;;;;;;;;;;;;346892;28;1397;-81
2024/01/27 00:45:37;;;;;;;;;;;;;;;;;;342767;28;1181;-81
2024/01/27 00:45:47;;;;;;;;;;;;;;;;;;343048;28;1077;-81
2024/01/27 00:45:57;;;;;;;;;;;;;;;;;;342774;28;1057;-81
2024/01/27 00:46:08;;;;;;;;;;;;;;;;;;341705;28;1007;-81
2024/01/27 00:46:18;;;;;;;;;;;;;;;;;;341394;29;1201;-81
2024/01/27 00:46:28;;;;;;;;;;;;;;;;;;341766;29;987;-81
2024/01/27 00:46:38;;;;;;;;;;;;;;;;;;342825;28;1086;-81
2024/01/27 00:46:49;;;;;;;;;;;;;;;;;;343083;28;1090;-81
2024/01/27 00:46:59;;;;;;;;;;;;;;;;;;344047;28;995;-81
2024/01/27 00:47:09;;;;;;;;;;;;;;;;;;344445;28;808;-81
2024/01/27 00:47:19;;;;;;;;;;;;;;;;;;344113;28;1026;-81
2024/01/27 00:47:30;;;;;;;;;;;;;;;;;;344333;28;1359;-81
2024/01/27 00:47:40;;;;;;;;;;;;;;;;;;343963;28;1311;-81
2024/01/27 00:47:50;;;;;;;;;;;;;;;;;;344295;28;1319;-81
2024/01/27 00:48:01;;;;;;;;;;;;;;;;;;342715;28;1328;-81
2024/01/27 00:48:11;;;;;;;;;;;;;;;;;;344351;28;1327;-82
2024/01/27 00:48:22;;;;;;;;;;;;;;;;;;344082;28;1409;-82
2024/01/27 00:48:32;;;;;;;;;;;;;;;;;;344300;28;1023;-82
2024/01/27 00:48:42;;;;;;;;;;;;;;;;;;341403;29;1178;-81
2024/01/27 00:48:52;;;;;;;;;;;;;;;;;;344305;28;1186;-81
2024/01/27 00:49:03;;;;;;;;;;;;;;;;;;342883;28;1042;-81
2024/01/27 00:49:13;;;;;;;;;;;;;;;;;;344221;28;1307;-81
2024/01/27 00:49:23;;;;;;;;;;;;;;;;;;344326;28;1053;-81
2024/01/27 00:49:33;;;;;;;;;;;;;;;;;;344303;28;967;-81
2024/01/27 00:49:44;;;;;;;;;;;;;;;;;;344416;28;1018;-81
2024/01/27 00:49:54;;;;;;;;;;;;;;;;;;344142;28;994;-81
2024/01/27 00:50:05;;;;;;;;;;;;;;;;;;344322;28;1160;-81
2024/01/27 00:50:16;;;;;;;;;;;;;;;;;;340233;29;1196;-81
2024/01/27 00:50:26;;;;;;;;;;;;;;;;;;342989;28;927;-81
2024/01/27 00:50:36;;;;;;;;;;;;;;;;;;344185;28;1221;-81
2024/01/27 00:50:46;;;;;;;;;;;;;;;;;;344368;28;1311;-81
2024/01/27 00:50:57;;;;;;;;;;;;;;;;;;344112;28;1013;-81
2024/01/27 00:51:07;;;;;;;;;;;;;;;;;;344463;28;848;-81
2024/01/27 00:51:18;;;;;;;;;;;;;;;;;;344073;28;1098;-81
2024/01/27 00:51:28;;;;;;;;;;;;;;;;;;341359;28;1306;-81
2024/01/27 00:51:39;;;;;;;;;;;;;;;;;;343744;28;1284;-81
2024/01/27 00:51:50;;;;;;;;;;;;;;;;;;344164;28;1300;-81
2024/01/27 00:52:00;;;;;;;;;;;;;;;;;;344081;28;1390;-81
2024/01/27 00:52:10;;;;;;;;;;;;;;;;;;342927;28;1391;-81
2024/01/27 00:52:20;;;;;;;;;;;;;;;;;;342813;28;923;-81
2024/01/27 00:52:30;;;;;;;;;;;;;;;;;;343055;28;1049;-81
2024/01/27 00:52:41;;;;;;;;;;;;;;;;;;344187;28;832;-81
2024/01/27 00:52:51;;;;;;;;;;;;;;;;;;343034;28;1019;-81
2024/01/27 00:53:02;;;;;;;;;;;;;;;;;;342706;28;836;-81
2024/01/27 00:53:12;;;;;;;;;;;;;;;;;;342945;28;1231;-81
2024/01/27 00:53:23;;;;;;;;;;;;;;;;;;341787;28;1062;-81
2024/01/27 00:53:33;;;;;;;;;;;;;;;;;;341651;28;1248;-81
2024/01/27 00:53:44;;;;;;;;;;;;;;;;;;342970;28;1628;-81
2024/01/27 00:53:54;;;;;;;;;;;;;;;;;;343086;28;1111;-81
2024/01/27 00:54:04;;;;;;;;;;;;;;;;;;342824;28;1015;-81
2024/01/27 00:54:14;;;;;;;;;;;;;;;;;;341625;28;1171;-81
2024/01/27 00:54:25;;;;;;;;;;;;;;;;;;341434;28;967;-81
2024/01/27 00:54:35;;;;;;;;;;;;;;;;;;341736;29;971;-81
2024/01/27 00:54:45;;;;;;;;;;;;;;;;;;341472;28;801;-81
2024/01/27 00:54:56;;;;;;;;;;;;;;;;;;341872;28;1058;-81
2024/01/27 00:55:06;;;;;;;;;;;;;;;;;;342532;28;1057;-81
2024/01/27 00:55:17;;;;;;;;;;;;;;;;;;342998;28;1002;-81
2024/01/27 00:55:27;;;;;;;;;;;;;;;;;;344088;28;1181;-81
2024/01/27 00:55:37;;;;;;;;;;;;;;;;;;344390;28;982;-81
2024/01/27 00:55:48;;;;;;;;;;;;;;;;;;344030;28;1201;-81
2024/01/27 00:55:58;;;;;;;;;;;;;;;;;;344427;28;1031;-81
2024/01/27 00:56:08;;;;;;;;;;;;;;;;;;344179;28;966;-81
2024/01/27 00:56:18;;;;;;;;;;;;;;;;;;344403;28;959;-81
2024/01/27 00:56:28;;;;;;;;;;;;;;;;;;343746;28;975;-81
2024/01/27 00:56:39;;;;;;;;;;;;;;;;;;343121;28;1125;-81
2024/01/27 00:56:49;;;;;;;;;;;;;;;;;;344169;28;987;-81
2024/01/27 00:56:59;;;;;;;;;;;;;;;;;;341886;28;1902;-81
2024/01/27 00:57:09;;;;;;;;;;;;;;;;;;342708;28;947;-81
2024/01/27 00:57:19;;;;;;;;;;;;;;;;;;342985;28;998;-81
2024/01/27 00:57:30;;;;;;;;;;;;;;;;;;342931;28;1045;-81
2024/01/27 00:57:40;;;;;;;;;;;;;;;;;;343067;28;1010;-81
2024/01/27 00:57:50;;;;;;;;;;;;;;;;;;341922;28;1350;-81
2024/01/27 00:58:01;;;;;;;;;;;;;;;;;;342237;28;1386;-81
2024/01/27 00:58:11;;;;;;;;;;;;;;;;;;342839;28;991;-81
2024/01/27 00:58:21;;;;;;;;;;;;;;;;;;341751;28;1034;-81
2024/01/27 00:58:31;;;;;;;;;;;;;;;;;;340975;29;1030;-81
2024/01/27 00:58:42;;;;;;;;;;;;;;;;;;341648;28;1343;-81
2024/01/27 00:58:52;;;;;;;;;;;;;;;;;;341610;28;1525;-81
2024/01/27 00:59:02;;;;;;;;;;;;;;;;;;341125;29;1462;-81
2024/01/27 00:59:12;;;;;;;;;;;;;;;;;;341324;28;1319;-81
2024/01/27 00:59:22;;;;;;;;;;;;;;;;;;341699;28;983;-81
2024/01/27 00:59:33;;;;;;;;;;;;;;;;;;340177;29;1225;-81
2024/01/27 00:59:43;;;;;;;;;;;;;;;;;;340321;29;992;-81
2024/01/27 00:59:53;;;;;;;;;;;;;;;;;;342815;28;1281;-81
2024/01/27 01:00:06;;;;;;;;;;;;;;;;;;342852;28;1042;-81
2024/01/27 01:00:16;;;;;;;;;;;;;;;;;;340069;29;1204;-81
2024/01/27 01:00:26;;;;;;;;;;;;;;;;;;340372;29;967;-81
2024/01/27 01:00:37;;;;;;;;;;;;;;;;;;340108;29;1007;-81
2024/01/27 01:00:47;;;;;;;;;;;;;;;;;;342764;28;1379;-81
2024/01/27 01:00:58;;;;;;;;;;;;;;;;;;345512;28;859;-81
2024/01/27 01:01:08;;;;;;;;;;;;;;;;;;345676;28;1006;-81
2024/01/27 01:01:18;;;;;;;;;;;;;;;;;;342806;28;928;-81
2024/01/27 01:01:29;;;;;;;;;;;;;;;;;;343035;28;1026;-81
2024/01/27 01:01:39;;;;;;;;;;;;;;;;;;340098;29;1079;-81
2024/01/27 01:01:49;;;;;;;;;;;;;;;;;;341683;29;881;-81
2024/01/27 01:01:59;;;;;;;;;;;;;;;;;;341679;29;936;-81
2024/01/27 01:02:09;;;;;;;;;;;;;;;;;;341552;29;1018;-81
2024/01/27 01:02:20;;;;;;;;;;;;;;;;;;341755;29;1050;-81
2024/01/27 01:02:30;;;;;;;;;;;;;;;;;;341588;29;931;-81
2024/01/27 01:02:40;;;;;;;;;;;;;;;;;;341877;28;1023;-81
2024/01/27 01:02:51;;;;;;;;;;;;;;;;;;342804;28;963;-81
2024/01/27 01:03:01;;;;;;;;;;;;;;;;;;341638;29;1227;-81
2024/01/27 01:03:11;;;;;;;;;;;;;;;;;;340294;29;1346;-81
2024/01/27 01:03:21;;;;;;;;;;;;;;;;;;341698;29;987;-81
2024/01/27 01:03:32;;;;;;;;;;;;;;;;;;340426;29;1042;-81
2024/01/27 01:03:42;;;;;;;;;;;;;;;;;;340530;29;975;-81
2024/01/27 01:03:52;;;;;;;;;;;;;;;;;;340221;29;1352;-81
2024/01/27 01:04:02;;;;;;;;;;;;;;;;;;339947;29;1352;-81
2024/01/27 01:04:13;;;;;;;;;;;;;;;;;;341427;29;1018;-81
2024/01/27 01:04:23;;;;;;;;;;;;;;;;;;341762;29;891;-81
2024/01/27 01:04:33;;;;;;;;;;;;;;;;;;341486;29;962;-81
2024/01/27 01:04:44;;;;;;;;;;;;;;;;;;341267;29;1063;-81
2024/01/27 01:04:55;;;;;;;;;;;;;;;;;;340174;29;1065;-81
2024/01/27 01:05:05;;;;;;;;;;;;;;;;;;341665;29;1406;-81
2024/01/27 01:05:15;;;;;;;;;;;;;;;;;;341440;29;1042;-81
2024/01/27 01:05:25;;;;;;;;;;;;;;;;;;341620;29;915;-81
2024/01/27 01:05:36;;;;;;;;;;;;;;;;;;342103;28;1149;-81
2024/01/27 01:05:46;;;;;;;;;;;;;;;;;;343411;28;1042;-81
2024/01/27 01:05:56;;;;;;;;;;;;;;;;;;344014;28;1227;-81
2024/01/27 01:06:06;;;;;;;;;;;;;;;;;;344407;28;863;-81
2024/01/27 01:06:16;;;;;;;;;;;;;;;;;;344200;28;998;-81
2024/01/27 01:06:27;;;;;;;;;;;;;;;;;;344153;28;1184;-81
2024/01/27 01:06:38;;;;;;;;;;;;;;;;;;344247;28;998;-81
2024/01/27 01:06:49;;;;;;;;;;;;;;;;;;342918;28;1325;-81
2024/01/27 01:06:59;;;;;;;;;;;;;;;;;;342843;28;1390;-81
2024/01/27 01:07:09;;;;;;;;;;;;;;;;;;343029;28;967;-81
2024/01/27 01:07:19;;;;;;;;;;;;;;;;;;341380;29;1273;-81
2024/01/27 01:07:30;;;;;;;;;;;;;;;;;;341650;28;968;-81
2024/01/27 01:07:40;;;;;;;;;;;;;;;;;;341490;29;1050;-81
2024/01/27 01:07:50;;;;;;;;;;;;;;;;;;341668;29;888;-81
2024/01/27 01:08:01;;;;;;;;;;;;;;;;;;339987;29;1311;-81
2024/01/27 01:08:11;;;;;;;;;;;;;;;;;;340409;29;983;-81
2024/01/27 01:08:21;;;;;;;;;;;;;;;;;;340171;29;844;-81
2024/01/27 01:08:34;;;;;;;;;;;;;;;;;;341646;29;1594;-81
2024/01/27 01:08:44;;;;;;;;;;;;;;;;;;340102;29;954;-81
2024/01/27 01:08:55;;;;;;;;;;;;;;;;;;340233;29;1245;-81
2024/01/27 01:09:05;;;;;;;;;;;;;;;;;;341157;29;1398;-81
2024/01/27 01:09:15;;;;;;;;;;;;;;;;;;340418;29;1340;-81
2024/01/27 01:09:25;;;;;;;;;;;;;;;;;;340086;29;1374;-81
2024/01/27 01:09:35;;;;;;;;;;;;;;;;;;340169;29;1047;-81
2024/01/27 01:09:46;;;;;;;;;;;;;;;;;;342674;28;1281;-81
2024/01/27 01:09:56;;;;;;;;;;;;;;;;;;343099;28;1011;-81
2024/01/27 01:10:06;;;;;;;;;;;;;;;;;;342805;28;1082;-81
2024/01/27 01:10:17;;;;;;;;;;;;;;;;;;341737;29;1077;-81
2024/01/27 01:10:27;;;;;;;;;;;;;;;;;;341440;29;848;-81
2024/01/27 01:10:37;;;;;;;;;;;;;;;;;;341714;29;1049;-81
2024/01/27 01:10:47;;;;;;;;;;;;;;;;;;341542;29;1007;-81
2024/01/27 01:10:58;;;;;;;;;;;;;;;;;;341894;28;979;-81
2024/01/27 01:11:09;;;;;;;;;;;;;;;;;;342879;28;1042;-81
2024/01/27 01:11:19;;;;;;;;;;;;;;;;;;340286;29;1218;-81
2024/01/27 01:11:29;;;;;;;;;;;;;;;;;;340220;29;1110;-81
2024/01/27 01:11:40;;;;;;;;;;;;;;;;;;340233;29;1539;-81
2024/01/27 01:11:50;;;;;;;;;;;;;;;;;;341461;29;1006;-81
2024/01/27 01:12:00;;;;;;;;;;;;;;;;;;341709;29;959;-81
2024/01/27 01:12:11;;;;;;;;;;;;;;;;;;341447;29;1015;-81
2024/01/27 01:12:21;;;;;;;;;;;;;;;;;;341728;29;1006;-81
2024/01/27 01:12:31;;;;;;;;;;;;;;;;;;341431;29;1300;-81
2024/01/27 01:12:41;;;;;;;;;;;;;;;;;;341050;29;836;-81
2024/01/27 01:12:51;;;;;;;;;;;;;;;;;;341349;29;1075;-81
2024/01/27 01:13:02;;;;;;;;;;;;;;;;;;341681;29;1011;-81
2024/01/27 01:13:12;;;;;;;;;;;;;;;;;;341460;28;833;-81
2024/01/27 01:13:22;;;;;;;;;;;;;;;;;;342987;28;1360;-81
2024/01/27 01:13:32;;;;;;;;;;;;;;;;;;342943;28;948;-81
2024/01/27 01:13:43;;;;;;;;;;;;;;;;;;342963;28;924;-81
2024/01/27 01:13:53;;;;;;;;;;;;;;;;;;340557;28;1598;-81
2024/01/27 01:14:03;;;;;;;;;;;;;;;;;;341274;29;1015;-81